createdAt,value
2017-07-24T00:00:40.369Z,60.20
2017-07-24T00:03:07.805Z,60.20
2017-07-24T00:05:35.265Z,60.50
2017-07-24T00:08:02.720Z,60.90
2017-07-24T00:10:30.333Z,61.10
2017-07-24T00:12:57.813Z,61.00
2017-07-24T00:15:26.012Z,61.10
2017-07-24T00:17:53.493Z,61.10
2017-07-24T00:20:20.937Z,61.10
2017-07-24T00:22:48.369Z,61.30
2017-07-24T00:25:15.800Z,61.50
2017-07-24T00:27:43.242Z,61.50
2017-07-24T00:30:10.703Z,61.30
2017-07-24T00:32:38.147Z,61.30
2017-07-24T00:35:05.593Z,61.10
2017-07-24T00:37:33.027Z,61.20
2017-07-24T00:40:00.462Z,61.30
2017-07-24T00:42:27.897Z,61.50
2017-07-24T00:44:55.367Z,61.70
2017-07-24T00:47:22.904Z,61.60
2017-07-24T00:49:50.332Z,61.70
2017-07-24T00:52:17.765Z,61.90
2017-07-24T00:54:45.240Z,62.00
2017-07-24T00:57:12.690Z,62.20
2017-07-24T00:59:40.118Z,62.40
2017-07-24T01:02:07.541Z,62.40
2017-07-24T01:04:35.019Z,62.60
2017-07-24T01:07:02.458Z,62.80
2017-07-24T01:09:29.984Z,62.60
2017-07-24T01:11:57.436Z,62.70
2017-07-24T01:14:24.881Z,62.60
2017-07-24T01:16:52.346Z,62.70
2017-07-24T01:19:20.575Z,62.70
2017-07-24T01:21:48.056Z,62.70
2017-07-24T01:24:16.252Z,62.80
2017-07-24T01:26:43.737Z,62.80
2017-07-24T01:29:11.163Z,62.90
2017-07-24T01:31:38.610Z,62.80
2017-07-24T01:34:06.129Z,62.70
2017-07-24T01:36:33.581Z,62.60
2017-07-24T01:39:01.008Z,62.80
2017-07-24T01:41:28.464Z,62.90
2017-07-24T01:43:55.904Z,62.70
2017-07-24T01:46:23.343Z,62.80
2017-07-24T01:48:50.786Z,62.50
2017-07-24T01:51:18.212Z,62.40
2017-07-24T01:53:45.679Z,62.50
2017-07-24T01:56:13.151Z,62.60
2017-07-24T01:58:40.601Z,62.50
2017-07-24T02:01:08.817Z,62.50
2017-07-24T02:03:36.253Z,62.50
2017-07-24T02:06:03.693Z,62.60
2017-07-24T02:08:31.180Z,62.60
2017-07-24T02:10:58.616Z,62.60
2017-07-24T02:13:26.068Z,62.80
2017-07-24T02:15:53.620Z,62.80
2017-07-24T02:18:21.873Z,63.80
2017-07-24T02:20:49.308Z,63.00
2017-07-24T02:23:16.748Z,63.00
2017-07-24T02:25:44.198Z,63.00
2017-07-24T02:28:12.459Z,63.10
2017-07-24T02:30:39.889Z,63.00
2017-07-24T02:33:07.333Z,63.40
2017-07-24T02:35:34.782Z,63.60
2017-07-24T02:38:02.231Z,63.70
2017-07-24T02:40:29.661Z,64.00
2017-07-24T02:42:57.112Z,64.30
2017-07-24T02:45:24.563Z,64.20
2017-07-24T02:47:52.816Z,65.20
2017-07-24T02:50:20.248Z,64.40
2017-07-24T02:52:47.693Z,64.40
2017-07-24T02:55:15.154Z,64.10
2017-07-24T02:57:42.598Z,64.10
2017-07-24T03:00:10.067Z,64.20
2017-07-24T03:02:37.607Z,64.00
2017-07-24T03:05:05.055Z,64.00
2017-07-24T03:07:32.501Z,64.00
2017-07-24T03:09:59.953Z,63.90
2017-07-24T03:12:27.402Z,64.00
2017-07-24T03:14:55.630Z,65.50
2017-07-24T03:17:23.076Z,65.50
2017-07-24T03:19:50.545Z,65.70
2017-07-24T03:22:18.064Z,66.00
2017-07-24T03:24:45.546Z,66.20
2017-07-24T03:27:13.737Z,66.30
2017-07-24T03:29:41.193Z,66.30
2017-07-24T03:32:08.629Z,66.40
2017-07-24T03:34:36.065Z,66.50
2017-07-24T03:37:03.554Z,66.60
2017-07-24T03:39:30.979Z,66.70
2017-07-24T03:41:58.427Z,66.80
2017-07-24T03:44:25.852Z,66.90
2017-07-24T03:46:53.323Z,67.00
2017-07-24T03:49:20.757Z,66.90
2017-07-24T03:51:48.189Z,66.90
2017-07-24T03:54:15.633Z,66.80
2017-07-24T03:56:43.081Z,66.90
2017-07-24T03:59:10.524Z,66.80
2017-07-24T04:01:37.961Z,66.70
2017-07-24T04:04:05.470Z,66.70
2017-07-24T04:06:32.969Z,66.80
2017-07-24T04:09:00.404Z,67.00
2017-07-24T04:11:27.849Z,67.00
2017-07-24T04:13:55.273Z,66.70
2017-07-24T04:16:22.712Z,66.70
2017-07-24T04:18:50.149Z,66.60
2017-07-24T04:21:17.597Z,66.90
2017-07-24T04:23:45.024Z,67.00
2017-07-24T04:26:12.482Z,67.30
2017-07-24T04:28:40.125Z,67.20
2017-07-24T04:31:07.604Z,67.20
2017-07-24T04:33:35.035Z,67.20
2017-07-24T04:36:02.468Z,67.30
2017-07-24T04:38:30.017Z,67.40
2017-07-24T04:40:57.450Z,67.40
2017-07-24T04:43:24.896Z,67.20
2017-07-24T04:45:52.391Z,67.30
2017-07-24T04:48:19.853Z,67.30
2017-07-24T04:50:47.448Z,67.50
2017-07-24T04:53:15.685Z,68.50
2017-07-24T04:55:43.211Z,68.00
2017-07-24T04:58:10.700Z,67.70
2017-07-24T05:00:38.909Z,68.50
2017-07-24T05:03:06.362Z,67.80
2017-07-24T05:05:33.869Z,67.50
2017-07-24T05:08:01.324Z,67.70
2017-07-24T05:10:28.808Z,67.70
2017-07-24T05:12:56.302Z,67.70
2017-07-24T05:15:23.793Z,67.70
2017-07-24T05:17:51.247Z,67.60
2017-07-24T05:20:18.711Z,67.60
2017-07-24T05:22:46.439Z,67.60
2017-07-24T05:25:13.869Z,67.60
2017-07-24T05:27:41.329Z,67.70
2017-07-24T05:30:08.764Z,67.60
2017-07-24T05:32:36.216Z,67.40
2017-07-24T05:35:03.671Z,67.10
2017-07-24T05:37:31.204Z,67.20
2017-07-24T05:39:59.412Z,66.90
2017-07-24T05:42:26.925Z,66.80
2017-07-24T05:44:55.133Z,66.10
2017-07-24T05:47:22.582Z,66.10
2017-07-24T05:49:50.025Z,64.80
2017-07-24T05:52:17.456Z,63.40
2017-07-24T05:54:44.937Z,61.60
2017-07-24T05:57:12.380Z,60.50
2017-07-24T05:59:39.799Z,59.20
2017-07-24T06:02:07.268Z,58.30
2017-07-24T06:04:34.709Z,56.80
2017-07-24T06:07:02.141Z,55.30
2017-07-24T06:09:29.568Z,54.70
2017-07-24T06:11:57.012Z,54.50
2017-07-24T06:14:24.462Z,54.50
2017-07-24T06:16:51.894Z,54.70
2017-07-24T06:19:19.458Z,55.10
2017-07-24T06:21:46.893Z,55.30
2017-07-24T06:24:14.445Z,55.60
2017-07-24T06:26:41.897Z,55.90
2017-07-24T06:29:09.336Z,55.60
2017-07-24T06:31:36.887Z,54.90
2017-07-24T06:34:04.421Z,54.50
2017-07-24T06:36:31.872Z,53.90
2017-07-24T06:38:59.304Z,52.70
2017-07-24T06:41:26.747Z,52.50
2017-07-24T06:43:54.182Z,52.20
2017-07-24T06:46:21.641Z,52.60
2017-07-24T06:48:49.057Z,53.00
2017-07-24T06:51:16.520Z,52.90
2017-07-24T06:53:43.969Z,53.10
2017-07-24T06:56:11.408Z,52.50
2017-07-24T06:58:39.623Z,53.80
2017-07-24T07:01:07.781Z,53.70
2017-07-24T07:03:35.224Z,54.10
2017-07-24T07:06:02.657Z,53.40
2017-07-24T07:08:30.148Z,54.40
2017-07-24T07:10:57.589Z,54.80
2017-07-24T07:13:25.051Z,55.60
2017-07-24T07:15:52.479Z,54.30
2017-07-24T07:18:19.978Z,54.10
2017-07-24T07:20:47.459Z,54.10
2017-07-24T07:23:14.913Z,55.80
2017-07-24T07:25:42.385Z,56.40
2017-07-24T07:28:10.597Z,57.30
2017-07-24T07:30:38.028Z,57.30
2017-07-24T07:33:05.497Z,56.90
2017-07-24T07:35:32.939Z,56.90
2017-07-24T07:38:00.368Z,57.20
2017-07-24T07:40:27.799Z,57.20
2017-07-24T07:42:55.256Z,57.70
2017-07-24T07:45:22.687Z,57.90
2017-07-24T07:47:50.148Z,57.90
2017-07-24T07:50:17.794Z,58.10
2017-07-24T07:52:45.237Z,58.10
2017-07-24T07:55:12.701Z,58.60
2017-07-24T07:57:40.155Z,58.70
2017-07-24T08:00:07.647Z,58.50
2017-07-24T08:02:35.094Z,59.10
2017-07-24T08:05:02.544Z,60.60
2017-07-24T08:07:29.978Z,63.60
2017-07-24T08:09:57.425Z,64.60
2017-07-24T08:12:25.656Z,66.90
2017-07-24T08:14:53.117Z,66.90
2017-07-24T08:17:20.540Z,66.30
2017-07-24T08:19:47.988Z,67.80
2017-07-24T08:22:15.433Z,67.60
2017-07-24T08:24:42.892Z,67.50
2017-07-24T08:27:10.331Z,68.10
2017-07-24T08:29:37.774Z,68.20
2017-07-24T08:32:05.225Z,68.40
2017-07-24T08:34:32.657Z,67.90
2017-07-24T08:37:00.119Z,67.60
2017-07-24T08:39:27.647Z,68.10
2017-07-24T08:41:55.077Z,69.50
2017-07-24T08:44:22.521Z,68.90
2017-07-24T08:46:50.005Z,68.40
2017-07-24T08:49:17.550Z,67.90
2017-07-24T08:51:45.022Z,67.40
2017-07-24T08:54:13.252Z,66.50
2017-07-24T08:56:40.693Z,66.20
2017-07-24T08:59:08.249Z,66.50
2017-07-24T09:01:35.673Z,66.50
2017-07-24T09:04:03.129Z,66.90
2017-07-24T09:06:30.612Z,67.80
2017-07-24T09:09:01.543Z,68.00
2017-07-24T09:11:28.987Z,68.50
2017-07-24T09:13:56.477Z,68.50
2017-07-24T09:16:23.925Z,68.60
2017-07-24T09:18:51.384Z,69.40
2017-07-24T09:21:19.593Z,69.60
2017-07-24T09:23:47.037Z,69.60
2017-07-24T09:26:14.622Z,69.60
2017-07-24T09:28:42.067Z,70.10
2017-07-24T09:31:09.518Z,70.60
2017-07-24T09:33:36.945Z,69.00
2017-07-24T09:36:04.501Z,69.80
2017-07-24T09:38:31.929Z,70.20
2017-07-24T09:40:59.401Z,70.00
2017-07-24T09:43:27.598Z,69.60
2017-07-24T09:45:55.067Z,69.60
2017-07-24T09:48:22.641Z,69.90
2017-07-24T09:50:50.069Z,69.20
2017-07-24T09:53:17.517Z,68.60
2017-07-24T09:55:45.722Z,68.80
2017-07-24T09:58:13.162Z,69.40
2017-07-24T10:00:40.657Z,68.20
2017-07-24T10:03:08.089Z,70.40
2017-07-24T10:05:35.535Z,70.50
2017-07-24T10:08:02.989Z,69.60
2017-07-24T10:10:31.209Z,67.20
2017-07-24T10:12:58.637Z,67.70
2017-07-24T10:15:26.133Z,67.40
2017-07-24T10:17:53.659Z,67.90
2017-07-24T10:20:21.210Z,67.50
2017-07-24T10:22:48.786Z,66.60
2017-07-24T10:25:16.995Z,66.20
2017-07-24T10:27:44.435Z,66.20
2017-07-24T10:30:11.900Z,67.10
2017-07-24T10:32:39.329Z,66.80
2017-07-24T10:35:06.790Z,66.00
2017-07-24T10:37:34.231Z,65.10
2017-07-24T10:40:01.683Z,64.30
2017-07-24T10:42:29.159Z,65.70
2017-07-24T10:44:56.665Z,65.90
2017-07-24T10:47:24.216Z,65.60
2017-07-24T10:49:51.748Z,67.30
2017-07-24T10:52:19.212Z,67.10
2017-07-24T10:54:47.499Z,67.90
2017-07-24T10:57:15.729Z,66.50
2017-07-24T10:59:43.232Z,66.60
2017-07-24T11:02:10.665Z,68.60
2017-07-24T11:04:38.148Z,67.10
2017-07-24T11:07:05.601Z,68.40
2017-07-24T11:09:33.047Z,66.70
2017-07-24T11:12:01.257Z,69.40
2017-07-24T11:14:28.701Z,68.90
2017-07-24T11:16:56.281Z,66.10
2017-07-24T11:19:23.720Z,66.80
2017-07-24T11:21:51.166Z,66.40
2017-07-24T11:24:18.620Z,66.10
2017-07-24T11:26:46.059Z,66.10
2017-07-24T11:29:13.597Z,66.20
2017-07-24T11:31:41.040Z,65.10
2017-07-24T11:34:08.456Z,65.90
2017-07-24T11:36:35.891Z,66.20
2017-07-24T11:39:03.364Z,65.10
2017-07-24T11:41:30.804Z,65.50
2017-07-24T11:43:58.240Z,65.00
2017-07-24T11:46:25.678Z,65.60
2017-07-24T11:48:53.245Z,63.10
2017-07-24T11:51:20.692Z,63.20
2017-07-24T11:53:48.921Z,63.40
2017-07-24T11:56:16.380Z,64.70
2017-07-24T11:58:43.844Z,66.30
2017-07-24T12:01:12.085Z,66.20
2017-07-24T12:03:39.517Z,65.80
2017-07-24T12:08:41.036Z,66.20
2017-07-24T12:11:08.514Z,65.30
2017-07-24T12:13:35.945Z,65.80
2017-07-24T12:16:03.550Z,67.00
2017-07-24T12:18:31.073Z,66.10
2017-07-24T12:20:59.264Z,66.30
2017-07-24T12:23:26.703Z,66.20
2017-07-24T12:25:54.208Z,64.40
2017-07-24T12:28:22.576Z,65.40
2017-07-24T12:30:49.998Z,65.30
2017-07-24T12:33:17.493Z,65.50
2017-07-24T12:35:44.919Z,64.30
2017-07-24T12:38:12.409Z,65.30
2017-07-24T12:40:41.076Z,65.30
2017-07-24T12:43:08.550Z,63.70
2017-07-24T12:45:35.973Z,62.90
2017-07-24T12:48:03.408Z,63.20
2017-07-24T12:50:30.846Z,64.60
2017-07-24T12:52:58.325Z,63.80
2017-07-24T12:55:25.769Z,63.80
2017-07-24T12:57:53.228Z,61.40
2017-07-24T13:00:20.818Z,63.50
2017-07-24T13:02:48.257Z,62.20
2017-07-24T13:05:15.735Z,62.10
2017-07-24T13:07:43.309Z,61.50
2017-07-24T13:10:11.503Z,61.90
2017-07-24T13:12:38.992Z,61.90
2017-07-24T13:15:06.436Z,59.90
2017-07-24T13:17:34.190Z,61.40
2017-07-24T13:20:02.397Z,60.80
2017-07-24T13:22:29.874Z,60.80
2017-07-24T13:24:57.396Z,58.90
2017-07-24T13:27:24.837Z,59.50
2017-07-24T13:29:52.319Z,59.30
2017-07-24T13:32:19.890Z,58.50
2017-07-24T13:34:47.391Z,58.20
2017-07-24T13:37:14.852Z,58.10
2017-07-24T13:39:42.304Z,56.70
2017-07-24T13:42:10.508Z,56.10
2017-07-24T13:44:37.993Z,55.90
2017-07-24T13:47:05.504Z,56.60
2017-07-24T13:49:33.117Z,54.80
2017-07-24T13:52:00.616Z,55.10
2017-07-24T13:54:28.167Z,55.40
2017-07-24T13:56:55.608Z,55.20
2017-07-24T13:59:23.041Z,54.20
2017-07-24T14:01:50.482Z,54.50
2017-07-24T14:04:17.941Z,52.80
2017-07-24T14:06:45.789Z,53.90
2017-07-24T14:09:14.152Z,53.90
2017-07-24T14:11:41.596Z,53.10
2017-07-24T14:14:09.082Z,52.80
2017-07-24T14:16:36.588Z,52.90
2017-07-24T14:19:04.645Z,51.60
2017-07-24T14:21:32.067Z,51.80
2017-07-24T14:23:59.524Z,51.80
2017-07-24T14:26:26.993Z,50.60
2017-07-24T14:28:55.252Z,49.70
2017-07-24T14:31:22.691Z,49.70
2017-07-24T14:33:50.905Z,49.70
2017-07-24T14:36:18.473Z,49.70
2017-07-24T14:38:45.918Z,49.60
2017-07-24T14:41:13.469Z,49.70
2017-07-24T14:43:40.896Z,49.70
2017-07-24T14:46:08.336Z,50.00
2017-07-24T14:48:35.781Z,49.40
2017-07-24T14:51:03.285Z,49.30
2017-07-24T14:53:30.891Z,49.40
2017-07-24T14:55:58.350Z,49.20
2017-07-24T14:58:25.830Z,48.90
2017-07-24T15:00:53.293Z,49.60
2017-07-24T15:03:20.727Z,49.30
2017-07-24T15:05:48.217Z,49.60
2017-07-24T15:08:16.452Z,49.50
2017-07-24T15:10:44.034Z,48.90
2017-07-24T15:13:12.245Z,47.80
2017-07-24T15:15:39.724Z,47.70
2017-07-24T15:18:07.961Z,47.80
2017-07-24T15:20:35.401Z,47.70
2017-07-24T15:23:02.908Z,47.50
2017-07-24T15:25:30.399Z,47.80
2017-07-24T15:27:57.868Z,47.10
2017-07-24T15:30:26.084Z,46.10
2017-07-24T15:32:53.558Z,45.90
2017-07-24T15:35:21.075Z,45.50
2017-07-24T15:37:48.688Z,45.40
2017-07-24T15:40:16.198Z,44.80
2017-07-24T15:42:43.741Z,45.30
2017-07-24T15:45:11.173Z,44.70
2017-07-24T15:47:38.633Z,44.90
2017-07-24T15:50:06.872Z,44.70
2017-07-24T15:52:34.326Z,44.70
2017-07-24T15:55:01.861Z,43.80
2017-07-24T15:57:29.301Z,43.50
2017-07-24T15:59:56.721Z,43.60
2017-07-24T16:02:24.177Z,43.50
2017-07-24T16:04:51.632Z,43.70
2017-07-24T16:07:19.186Z,44.40
2017-07-24T16:09:46.686Z,44.10
2017-07-24T16:12:14.191Z,43.90
2017-07-24T16:14:42.435Z,43.70
2017-07-24T16:17:10.638Z,43.90
2017-07-24T16:19:38.114Z,43.90
2017-07-24T16:22:05.614Z,44.00
2017-07-24T16:24:33.839Z,44.00
2017-07-24T16:27:01.389Z,43.90
2017-07-24T16:29:28.846Z,43.30
2017-07-24T16:31:57.061Z,42.40
2017-07-24T16:34:25.370Z,42.90
2017-07-24T16:36:52.832Z,42.80
2017-07-24T16:39:20.316Z,42.00
2017-07-24T16:41:47.788Z,42.50
2017-07-24T16:44:16.026Z,42.40
2017-07-24T16:46:43.610Z,42.40
2017-07-24T16:49:11.825Z,41.60
2017-07-24T16:51:39.287Z,41.50
2017-07-24T16:54:06.778Z,41.70
2017-07-24T16:56:34.306Z,41.60
2017-07-24T16:59:01.772Z,42.60
2017-07-24T17:01:29.244Z,41.40
2017-07-24T17:03:56.733Z,41.50
2017-07-24T17:06:24.174Z,41.30
2017-07-24T17:08:52.422Z,41.80
2017-07-24T17:11:20.665Z,41.90
2017-07-24T17:13:48.210Z,41.80
2017-07-24T17:16:15.639Z,41.40
2017-07-24T17:18:43.163Z,41.60
2017-07-24T17:21:10.614Z,41.70
2017-07-24T17:23:38.061Z,42.20
2017-07-24T17:26:05.504Z,41.70
2017-07-24T17:28:32.936Z,42.60
2017-07-24T17:31:00.425Z,42.00
2017-07-24T17:33:27.928Z,42.20
2017-07-24T17:35:55.409Z,46.60
2017-07-24T17:38:22.859Z,51.70
2017-07-24T17:40:51.100Z,57.80
2017-07-24T17:43:18.564Z,57.70
2017-07-24T17:45:46.813Z,60.60
2017-07-24T17:48:14.256Z,60.40
2017-07-24T17:50:42.740Z,60.40
2017-07-24T17:53:10.211Z,63.10
2017-07-24T17:55:37.693Z,64.50
2017-07-24T17:58:05.155Z,65.30
2017-07-24T18:00:32.581Z,65.70
2017-07-24T18:03:00.025Z,66.70
2017-07-24T18:05:27.576Z,66.60
2017-07-24T18:07:55.224Z,63.90
2017-07-24T18:10:22.701Z,64.30
2017-07-24T18:12:50.193Z,64.70
2017-07-24T18:15:17.622Z,66.80
2017-07-24T18:17:45.065Z,66.40
2017-07-24T18:20:12.745Z,64.70
2017-07-24T18:22:40.652Z,64.80
2017-07-24T18:25:08.076Z,66.10
2017-07-24T18:27:36.425Z,64.40
2017-07-24T18:30:04.619Z,65.20
2017-07-24T18:32:32.096Z,65.20
2017-07-24T18:34:59.529Z,64.50
2017-07-24T18:37:26.958Z,65.40
2017-07-24T18:39:54.439Z,67.00
2017-07-24T18:42:22.162Z,65.20
2017-07-24T18:44:50.413Z,66.40
2017-07-24T18:47:17.840Z,66.30
2017-07-24T18:49:45.289Z,65.40
2017-07-24T18:52:12.781Z,64.90
2017-07-24T18:54:40.291Z,67.10
2017-07-24T18:57:07.730Z,66.90
2017-07-24T18:59:35.173Z,67.10
2017-07-24T19:02:02.608Z,66.00
2017-07-24T19:04:30.092Z,66.50
2017-07-24T19:06:57.552Z,66.90
2017-07-24T19:09:24.992Z,66.50
2017-07-24T19:11:52.437Z,67.30
2017-07-24T19:14:20.733Z,64.80
2017-07-24T19:16:48.230Z,64.90
2017-07-24T19:19:15.768Z,65.30
2017-07-24T19:21:43.204Z,64.80
2017-07-24T19:24:10.658Z,64.80
2017-07-24T19:26:38.196Z,64.40
2017-07-24T19:29:05.737Z,63.70
2017-07-24T19:31:33.179Z,64.00
2017-07-24T19:34:00.621Z,64.30
2017-07-24T19:36:28.073Z,62.80
2017-07-24T19:38:55.636Z,63.90
2017-07-24T19:41:23.869Z,65.30
2017-07-24T19:43:51.311Z,65.10
2017-07-24T19:46:18.754Z,63.00
2017-07-24T19:48:46.204Z,63.50
2017-07-24T19:51:13.673Z,64.00
2017-07-24T19:53:41.113Z,63.70
2017-07-24T19:56:09.412Z,64.00
2017-07-24T19:58:36.895Z,64.00
2017-07-24T20:01:04.333Z,64.20
2017-07-24T20:03:32.942Z,63.80
2017-07-24T20:06:00.729Z,63.40
2017-07-24T20:08:28.210Z,63.90
2017-07-24T20:10:55.641Z,63.10
2017-07-24T20:13:23.167Z,63.30
2017-07-24T20:15:50.645Z,63.90
2017-07-24T20:18:18.832Z,63.60
2017-07-24T20:20:46.454Z,63.10
2017-07-24T20:23:14.659Z,64.10
2017-07-24T20:25:42.137Z,63.50
2017-07-24T20:28:09.615Z,62.20
2017-07-24T20:30:37.117Z,62.50
2017-07-24T20:33:04.596Z,62.50
2017-07-24T20:35:32.855Z,63.40
2017-07-24T20:38:01.083Z,63.10
2017-07-24T20:40:28.645Z,62.90
2017-07-24T20:42:56.915Z,63.50
2017-07-24T20:45:24.444Z,63.40
2017-07-24T20:47:51.901Z,62.50
2017-07-24T20:50:20.175Z,62.80
2017-07-24T20:52:48.419Z,62.00
2017-07-24T20:55:16.671Z,63.00
2017-07-24T20:57:44.151Z,62.30
2017-07-24T21:00:11.630Z,62.60
2017-07-24T21:02:39.079Z,62.00
2017-07-24T21:05:06.526Z,61.20
2017-07-24T21:07:34.785Z,61.70
2017-07-24T21:10:02.226Z,61.90
2017-07-24T21:12:29.687Z,62.10
2017-07-24T21:14:57.155Z,61.70
2017-07-24T21:17:25.372Z,63.30
2017-07-24T21:19:52.833Z,63.20
2017-07-24T21:22:20.316Z,62.90
2017-07-24T21:24:48.515Z,61.80
2017-07-24T21:27:15.973Z,61.70
2017-07-24T21:29:43.643Z,61.70
2017-07-24T21:32:11.192Z,61.20
2017-07-24T21:34:39.424Z,61.10
2017-07-24T21:37:06.874Z,61.00
2017-07-24T21:39:34.324Z,60.80
2017-07-24T21:42:01.769Z,61.80
2017-07-24T21:44:29.224Z,62.20
2017-07-24T21:49:31.373Z,63.00
2017-07-24T21:51:59.576Z,63.40
2017-07-24T21:54:27.056Z,63.30
2017-07-24T21:56:54.633Z,63.30
2017-07-24T21:59:22.907Z,62.70
2017-07-24T22:01:50.366Z,62.60
2017-07-24T22:04:17.901Z,62.50
2017-07-24T22:06:45.402Z,61.80
2017-07-24T22:09:13.699Z,63.20
2017-07-24T22:11:42.026Z,63.40
2017-07-24T22:14:09.510Z,62.70
2017-07-24T22:16:37.092Z,62.20
2017-07-24T22:19:04.543Z,63.10
2017-07-24T22:21:32.035Z,62.30
2017-07-24T22:23:59.487Z,63.00
2017-07-24T22:26:26.958Z,62.90
2017-07-24T22:28:54.436Z,62.90
2017-07-24T22:31:21.895Z,62.10
2017-07-24T22:33:50.100Z,63.70
2017-07-24T22:36:17.537Z,63.00
2017-07-24T22:38:45.032Z,62.90
2017-07-24T22:41:12.566Z,62.90
2017-07-24T22:43:40.016Z,62.90
2017-07-24T22:46:08.245Z,64.40
2017-07-24T22:48:35.708Z,63.70
2017-07-24T22:51:03.241Z,63.00
2017-07-24T22:53:30.700Z,63.80
2017-07-24T22:55:58.257Z,63.40
2017-07-24T22:58:25.708Z,63.90
2017-07-24T23:00:54.049Z,64.80
2017-07-24T23:03:21.618Z,64.80
2017-07-24T23:05:49.849Z,64.50
2017-07-24T23:08:17.429Z,64.50
2017-07-24T23:10:45.638Z,65.00
2017-07-24T23:13:13.140Z,65.00
2017-07-24T23:15:41.361Z,64.80
2017-07-24T23:18:08.866Z,64.70
2017-07-24T23:20:36.367Z,65.10
2017-07-24T23:23:03.841Z,65.60
2017-07-24T23:25:31.317Z,65.50
2017-07-24T23:27:58.775Z,65.40
2017-07-24T23:30:26.217Z,65.00
2017-07-24T23:32:53.869Z,65.00
2017-07-24T23:35:21.657Z,65.60
2017-07-24T23:37:49.127Z,65.70
2017-07-24T23:40:16.613Z,65.40
2017-07-24T23:42:44.598Z,65.40
2017-07-24T23:45:12.059Z,66.20
2017-07-24T23:47:39.502Z,66.00
2017-07-24T23:50:07.010Z,65.10
2017-07-24T23:52:35.214Z,66.40
2017-07-24T23:55:02.649Z,65.50
2017-07-24T23:57:30.096Z,65.20
2017-07-24T23:59:57.524Z,65.20
